sensor_id;sensor_type;location;lat;lon;timestamp;P1;durP1;ratioP1;P2;durP2;ratioP2
20859;SDS011;10590;48.154;11.514;2024-03-07T00:01:40;28.17;;;19.67;;
20859;SDS011;10590;48.154;11.514;2024-03-07T00:07:03;28.40;;;18.77;;
20859;SDS011;10590;48.154;11.514;2024-03-07T00:12:25;29.20;;;18.60;;
20859;SDS011;10590;48.154;11.514;2024-03-07T00:17:47;30.97;;;20.30;;
20859;SDS011;10590;48.154;11.514;2024-03-07T00:23:10;31.03;;;20.00;;
20859;SDS011;10590;48.154;11.514;2024-03-07T00:28:32;33.60;;;21.13;;
20859;SDS011;10590;48.154;11.514;2024-03-07T00:33:59;32.43;;;21.37;;
20859;SDS011;10590;48.154;11.514;2024-03-07T00:39:22;38.50;;;22.57;;
20859;SDS011;10590;48.154;11.514;2024-03-07T00:44:44;39.80;;;22.93;;
20859;SDS011;10590;48.154;11.514;2024-03-07T00:50:06;40.03;;;23.47;;
20859;SDS011;10590;48.154;11.514;2024-03-07T00:55:30;44.67;;;24.73;;
20859;SDS011;10590;48.154;11.514;2024-03-07T01:00:51;40.87;;;24.07;;
20859;SDS011;10590;48.154;11.514;2024-03-07T01:06:13;42.73;;;24.37;;
20859;SDS011;10590;48.154;11.514;2024-03-07T01:11:36;41.00;;;23.60;;
20859;SDS011;10590;48.154;11.514;2024-03-07T01:16:58;43.17;;;25.03;;
20859;SDS011;10590;48.154;11.514;2024-03-07T01:22:19;47.30;;;24.97;;
20859;SDS011;10590;48.154;11.514;2024-03-07T01:27:42;45.20;;;25.93;;
20859;SDS011;10590;48.154;11.514;2024-03-07T01:33:04;45.80;;;24.57;;
20859;SDS011;10590;48.154;11.514;2024-03-07T01:38:26;50.23;;;25.17;;
20859;SDS011;10590;48.154;11.514;2024-03-07T01:43:49;57.47;;;29.27;;
20859;SDS011;10590;48.154;11.514;2024-03-07T01:49:10;50.03;;;27.40;;
20859;SDS011;10590;48.154;11.514;2024-03-07T01:54:32;52.03;;;26.50;;
20859;SDS011;10590;48.154;11.514;2024-03-07T01:59:56;53.77;;;27.27;;
20859;SDS011;10590;48.154;11.514;2024-03-07T02:05:18;48.20;;;26.67;;
20859;SDS011;10590;48.154;11.514;2024-03-07T02:10:40;47.67;;;25.23;;
20859;SDS011;10590;48.154;11.514;2024-03-07T02:16:03;51.40;;;27.83;;
20859;SDS011;10590;48.154;11.514;2024-03-07T02:21:28;54.27;;;27.50;;
20859;SDS011;10590;48.154;11.514;2024-03-07T02:26:50;52.30;;;28.60;;
20859;SDS011;10590;48.154;11.514;2024-03-07T02:32:12;57.60;;;29.43;;
20859;SDS011;10590;48.154;11.514;2024-03-07T02:37:35;55.17;;;28.77;;
20859;SDS011;10590;48.154;11.514;2024-03-07T02:42:57;53.20;;;28.90;;
20859;SDS011;10590;48.154;11.514;2024-03-07T02:48:19;61.43;;;30.53;;
20859;SDS011;10590;48.154;11.514;2024-03-07T02:53:42;57.83;;;30.40;;
20859;SDS011;10590;48.154;11.514;2024-03-07T02:59:03;57.73;;;29.60;;
20859;SDS011;10590;48.154;11.514;2024-03-07T03:04:26;62.80;;;32.00;;
20859;SDS011;10590;48.154;11.514;2024-03-07T03:09:49;63.83;;;31.97;;
20859;SDS011;10590;48.154;11.514;2024-03-07T03:15:11;55.67;;;29.90;;
20859;SDS011;10590;48.154;11.514;2024-03-07T03:20:32;60.27;;;31.50;;
20859;SDS011;10590;48.154;11.514;2024-03-07T03:26:00;65.13;;;31.97;;
20859;SDS011;10590;48.154;11.514;2024-03-07T03:31:22;65.83;;;32.77;;
20859;SDS011;10590;48.154;11.514;2024-03-07T03:36:45;55.83;;;32.03;;
20859;SDS011;10590;48.154;11.514;2024-03-07T03:42:08;63.67;;;32.23;;
20859;SDS011;10590;48.154;11.514;2024-03-07T03:47:30;67.63;;;34.23;;
20859;SDS011;10590;48.154;11.514;2024-03-07T03:52:53;69.87;;;35.20;;
20859;SDS011;10590;48.154;11.514;2024-03-07T03:58:17;63.67;;;34.23;;
20859;SDS011;10590;48.154;11.514;2024-03-07T04:03:38;61.67;;;33.77;;
20859;SDS011;10590;48.154;11.514;2024-03-07T04:09:00;64.27;;;35.07;;
20859;SDS011;10590;48.154;11.514;2024-03-07T04:14:23;66.90;;;35.87;;
20859;SDS011;10590;48.154;11.514;2024-03-07T04:19:45;67.83;;;36.03;;
20859;SDS011;10590;48.154;11.514;2024-03-07T04:25:07;69.60;;;38.03;;
20859;SDS011;10590;48.154;11.514;2024-03-07T04:30:31;66.13;;;35.60;;
20859;SDS011;10590;48.154;11.514;2024-03-07T04:35:53;71.47;;;39.03;;
20859;SDS011;10590;48.154;11.514;2024-03-07T04:41:15;67.37;;;38.20;;
20859;SDS011;10590;48.154;11.514;2024-03-07T04:46:38;79.47;;;40.23;;
20859;SDS011;10590;48.154;11.514;2024-03-07T04:52:02;72.97;;;38.30;;
20859;SDS011;10590;48.154;11.514;2024-03-07T04:57:25;78.23;;;39.13;;
20859;SDS011;10590;48.154;11.514;2024-03-07T05:02:48;70.23;;;38.70;;
20859;SDS011;10590;48.154;11.514;2024-03-07T05:08:12;76.17;;;39.97;;
20859;SDS011;10590;48.154;11.514;2024-03-07T05:13:34;75.93;;;40.27;;
20859;SDS011;10590;48.154;11.514;2024-03-07T05:18:58;79.00;;;41.40;;
20859;SDS011;10590;48.154;11.514;2024-03-07T05:24:20;78.33;;;42.50;;
20859;SDS011;10590;48.154;11.514;2024-03-07T05:29:41;81.63;;;41.63;;
20859;SDS011;10590;48.154;11.514;2024-03-07T05:35:05;76.63;;;41.43;;
20859;SDS011;10590;48.154;11.514;2024-03-07T05:40:27;80.93;;;41.23;;
20859;SDS011;10590;48.154;11.514;2024-03-07T05:45:49;77.83;;;40.17;;
20859;SDS011;10590;48.154;11.514;2024-03-07T05:51:12;80.93;;;42.40;;
20859;SDS011;10590;48.154;11.514;2024-03-07T05:56:33;79.57;;;41.80;;
20859;SDS011;10590;48.154;11.514;2024-03-07T06:01:55;77.57;;;40.03;;
20859;SDS011;10590;48.154;11.514;2024-03-07T06:07:19;74.50;;;39.33;;
20859;SDS011;10590;48.154;11.514;2024-03-07T06:12:41;76.97;;;41.20;;
20859;SDS011;10590;48.154;11.514;2024-03-07T06:18:05;77.57;;;41.13;;
20859;SDS011;10590;48.154;11.514;2024-03-07T06:23:29;83.00;;;41.33;;
20859;SDS011;10590;48.154;11.514;2024-03-07T06:28:51;77.27;;;42.17;;
20859;SDS011;10590;48.154;11.514;2024-03-07T06:34:13;83.83;;;42.30;;
20859;SDS011;10590;48.154;11.514;2024-03-07T06:39:36;81.83;;;42.00;;
20859;SDS011;10590;48.154;11.514;2024-03-07T06:44:58;76.47;;;42.00;;
20859;SDS011;10590;48.154;11.514;2024-03-07T06:50:20;79.73;;;41.97;;
20859;SDS011;10590;48.154;11.514;2024-03-07T06:55:43;82.90;;;41.97;;
20859;SDS011;10590;48.154;11.514;2024-03-07T07:01:04;84.10;;;43.07;;
20859;SDS011;10590;48.154;11.514;2024-03-07T07:06:30;81.43;;;42.63;;
20859;SDS011;10590;48.154;11.514;2024-03-07T07:11:55;85.53;;;42.60;;
20859;SDS011;10590;48.154;11.514;2024-03-07T07:17:16;82.43;;;43.93;;
20859;SDS011;10590;48.154;11.514;2024-03-07T07:22:52;80.47;;;41.70;;
20859;SDS011;10590;48.154;11.514;2024-03-07T07:28:16;79.87;;;41.40;;
20859;SDS011;10590;48.154;11.514;2024-03-07T07:33:38;81.40;;;42.13;;
20859;SDS011;10590;48.154;11.514;2024-03-07T07:38:59;82.67;;;42.57;;
20859;SDS011;10590;48.154;11.514;2024-03-07T07:44:22;84.87;;;41.93;;
20859;SDS011;10590;48.154;11.514;2024-03-07T07:49:44;74.73;;;40.87;;
20859;SDS011;10590;48.154;11.514;2024-03-07T07:55:06;83.90;;;42.83;;
20859;SDS011;10590;48.154;11.514;2024-03-07T08:00:35;78.67;;;42.00;;
20859;SDS011;10590;48.154;11.514;2024-03-07T08:05:57;80.90;;;43.53;;
20859;SDS011;10590;48.154;11.514;2024-03-07T08:11:19;81.67;;;43.93;;
20859;SDS011;10590;48.154;11.514;2024-03-07T08:16:42;78.70;;;42.40;;
20859;SDS011;10590;48.154;11.514;2024-03-07T08:22:04;73.13;;;40.87;;
20859;SDS011;10590;48.154;11.514;2024-03-07T08:27:25;78.40;;;43.03;;
20859;SDS011;10590;48.154;11.514;2024-03-07T08:32:49;75.83;;;42.37;;
20859;SDS011;10590;48.154;11.514;2024-03-07T08:38:13;77.77;;;42.10;;
20859;SDS011;10590;48.154;11.514;2024-03-07T08:43:34;79.00;;;42.40;;
20859;SDS011;10590;48.154;11.514;2024-03-07T08:48:58;75.53;;;42.03;;
20859;SDS011;10590;48.154;11.514;2024-03-07T08:54:20;76.30;;;42.20;;
20859;SDS011;10590;48.154;11.514;2024-03-07T08:59:42;78.60;;;41.47;;
20859;SDS011;10590;48.154;11.514;2024-03-07T09:05:05;79.00;;;42.13;;
20859;SDS011;10590;48.154;11.514;2024-03-07T09:10:30;73.83;;;40.70;;
20859;SDS011;10590;48.154;11.514;2024-03-07T09:15:51;79.80;;;42.43;;
20859;SDS011;10590;48.154;11.514;2024-03-07T09:21:14;72.03;;;41.43;;
20859;SDS011;10590;48.154;11.514;2024-03-07T09:26:36;69.60;;;39.73;;
20859;SDS011;10590;48.154;11.514;2024-03-07T09:31:58;67.03;;;39.97;;
20859;SDS011;10590;48.154;11.514;2024-03-07T09:37:21;69.10;;;38.83;;
20859;SDS011;10590;48.154;11.514;2024-03-07T09:42:44;61.70;;;34.90;;
20859;SDS011;10590;48.154;11.514;2024-03-07T09:48:08;54.43;;;32.73;;
20859;SDS011;10590;48.154;11.514;2024-03-07T09:53:31;61.33;;;33.03;;
20859;SDS011;10590;48.154;11.514;2024-03-07T09:58:54;58.63;;;32.97;;
20859;SDS011;10590;48.154;11.514;2024-03-07T10:04:20;53.50;;;31.93;;
20859;SDS011;10590;48.154;11.514;2024-03-07T10:09:51;58.57;;;33.77;;
20859;SDS011;10590;48.154;11.514;2024-03-07T10:15:16;55.00;;;31.80;;
20859;SDS011;10590;48.154;11.514;2024-03-07T10:20:39;51.67;;;31.60;;
20859;SDS011;10590;48.154;11.514;2024-03-07T10:26:05;46.17;;;28.90;;
20859;SDS011;10590;48.154;11.514;2024-03-07T10:31:31;47.47;;;29.10;;
20859;SDS011;10590;48.154;11.514;2024-03-07T10:36:52;49.23;;;29.40;;
20859;SDS011;10590;48.154;11.514;2024-03-07T10:42:16;55.50;;;32.13;;
20859;SDS011;10590;48.154;11.514;2024-03-07T10:47:39;55.90;;;31.57;;
20859;SDS011;10590;48.154;11.514;2024-03-07T10:53:07;54.07;;;29.90;;
20859;SDS011;10590;48.154;11.514;2024-03-07T10:58:41;48.33;;;29.40;;
20859;SDS011;10590;48.154;11.514;2024-03-07T11:04:07;48.67;;;28.97;;
20859;SDS011;10590;48.154;11.514;2024-03-07T11:09:29;50.63;;;29.03;;
20859;SDS011;10590;48.154;11.514;2024-03-07T11:14:55;48.20;;;29.90;;
20859;SDS011;10590;48.154;11.514;2024-03-07T11:20:18;45.77;;;28.03;;
20859;SDS011;10590;48.154;11.514;2024-03-07T11:25:42;42.83;;;27.80;;
20859;SDS011;10590;48.154;11.514;2024-03-07T11:31:08;44.47;;;28.63;;
20859;SDS011;10590;48.154;11.514;2024-03-07T11:36:43;46.70;;;27.63;;
20859;SDS011;10590;48.154;11.514;2024-03-07T11:42:05;47.63;;;26.60;;
20859;SDS011;10590;48.154;11.514;2024-03-07T11:47:35;46.47;;;27.33;;
20859;SDS011;10590;48.154;11.514;2024-03-07T11:52:58;43.23;;;26.87;;
20859;SDS011;10590;48.154;11.514;2024-03-07T11:58:20;46.20;;;27.10;;
20859;SDS011;10590;48.154;11.514;2024-03-07T12:03:44;47.33;;;26.33;;
20859;SDS011;10590;48.154;11.514;2024-03-07T12:09:10;44.70;;;27.50;;
20859;SDS011;10590;48.154;11.514;2024-03-07T12:14:43;45.30;;;26.57;;
20859;SDS011;10590;48.154;11.514;2024-03-07T12:20:07;46.87;;;27.50;;
20859;SDS011;10590;48.154;11.514;2024-03-07T12:25:44;49.40;;;27.80;;
20859;SDS011;10590;48.154;11.514;2024-03-07T12:31:07;42.70;;;25.43;;
20859;SDS011;10590;48.154;11.514;2024-03-07T12:36:37;46.33;;;25.27;;
20859;SDS011;10590;48.154;11.514;2024-03-07T12:42:06;46.13;;;26.70;;
20859;SDS011;10590;48.154;11.514;2024-03-07T12:47:30;45.33;;;25.23;;
20859;SDS011;10590;48.154;11.514;2024-03-07T12:52:54;45.33;;;25.90;;
20859;SDS011;10590;48.154;11.514;2024-03-07T12:58:15;42.83;;;25.33;;
20859;SDS011;10590;48.154;11.514;2024-03-07T13:03:38;44.33;;;26.33;;
20859;SDS011;10590;48.154;11.514;2024-03-07T13:09:03;46.13;;;25.67;;
20859;SDS011;10590;48.154;11.514;2024-03-07T13:14:30;45.87;;;25.80;;
20859;SDS011;10590;48.154;11.514;2024-03-07T13:19:53;45.33;;;26.23;;
20859;SDS011;10590;48.154;11.514;2024-03-07T13:25:22;51.88;;;32.97;;
20859;SDS011;10590;48.154;11.514;2024-03-07T13:30:45;46.73;;;27.63;;
20859;SDS011;10590;48.154;11.514;2024-03-07T13:36:09;48.83;;;27.83;;
20859;SDS011;10590;48.154;11.514;2024-03-07T13:41:32;39.37;;;25.23;;
20859;SDS011;10590;48.154;11.514;2024-03-07T13:46:54;41.13;;;24.10;;
20859;SDS011;10590;48.154;11.514;2024-03-07T13:52:19;37.40;;;23.30;;
20859;SDS011;10590;48.154;11.514;2024-03-07T13:57:43;37.93;;;22.80;;
20859;SDS011;10590;48.154;11.514;2024-03-07T14:09:30;39.00;;;22.47;;
20859;SDS011;10590;48.154;11.514;2024-03-07T14:21:25;40.47;;;23.67;;
20859;SDS011;10590;48.154;11.514;2024-03-07T14:27:15;42.60;;;24.67;;
20859;SDS011;10590;48.154;11.514;2024-03-07T14:32:46;44.43;;;24.53;;
20859;SDS011;10590;48.154;11.514;2024-03-07T14:38:22;46.60;;;26.10;;
20859;SDS011;10590;48.154;11.514;2024-03-07T14:43:47;48.93;;;26.60;;
20859;SDS011;10590;48.154;11.514;2024-03-07T14:49:10;50.97;;;25.87;;
20859;SDS011;10590;48.154;11.514;2024-03-07T14:54:37;44.00;;;25.07;;
20859;SDS011;10590;48.154;11.514;2024-03-07T14:59:59;46.53;;;26.70;;
20859;SDS011;10590;48.154;11.514;2024-03-07T15:05:23;44.47;;;26.93;;
20859;SDS011;10590;48.154;11.514;2024-03-07T15:10:45;48.33;;;25.83;;
20859;SDS011;10590;48.154;11.514;2024-03-07T15:16:12;44.87;;;25.57;;
20859;SDS011;10590;48.154;11.514;2024-03-07T15:21:35;42.23;;;24.60;;
20859;SDS011;10590;48.154;11.514;2024-03-07T15:26:58;43.33;;;23.30;;
20859;SDS011;10590;48.154;11.514;2024-03-07T15:32:20;35.10;;;22.07;;
20859;SDS011;10590;48.154;11.514;2024-03-07T15:37:43;31.10;;;19.07;;
20859;SDS011;10590;48.154;11.514;2024-03-07T15:43:05;29.40;;;17.43;;
20859;SDS011;10590;48.154;11.514;2024-03-07T15:48:28;28.93;;;17.33;;
20859;SDS011;10590;48.154;11.514;2024-03-07T15:53:51;25.77;;;16.17;;
20859;SDS011;10590;48.154;11.514;2024-03-07T15:59:14;21.40;;;14.90;;
20859;SDS011;10590;48.154;11.514;2024-03-07T16:04:36;22.90;;;14.67;;
20859;SDS011;10590;48.154;11.514;2024-03-07T16:09:59;24.30;;;14.50;;
20859;SDS011;10590;48.154;11.514;2024-03-07T16:15:21;23.23;;;14.57;;
20859;SDS011;10590;48.154;11.514;2024-03-07T16:20:43;21.37;;;14.57;;
20859;SDS011;10590;48.154;11.514;2024-03-07T16:26:07;21.73;;;13.67;;
20859;SDS011;10590;48.154;11.514;2024-03-07T16:31:29;22.30;;;14.77;;
20859;SDS011;10590;48.154;11.514;2024-03-07T16:36:51;19.60;;;13.43;;
20859;SDS011;10590;48.154;11.514;2024-03-07T16:42:17;21.57;;;14.10;;
20859;SDS011;10590;48.154;11.514;2024-03-07T16:47:39;15.33;;;10.80;;
20859;SDS011;10590;48.154;11.514;2024-03-07T16:53:02;16.20;;;10.60;;
20859;SDS011;10590;48.154;11.514;2024-03-07T16:58:27;16.33;;;10.73;;
20859;SDS011;10590;48.154;11.514;2024-03-07T17:03:48;16.70;;;11.33;;
20859;SDS011;10590;48.154;11.514;2024-03-07T17:09:11;16.83;;;11.40;;
20859;SDS011;10590;48.154;11.514;2024-03-07T17:14:40;17.27;;;12.07;;
20859;SDS011;10590;48.154;11.514;2024-03-07T17:20:04;18.73;;;11.77;;
20859;SDS011;10590;48.154;11.514;2024-03-07T17:25:27;17.67;;;12.07;;
20859;SDS011;10590;48.154;11.514;2024-03-07T17:30:51;21.63;;;13.30;;
20859;SDS011;10590;48.154;11.514;2024-03-07T17:36:15;21.13;;;13.43;;
20859;SDS011;10590;48.154;11.514;2024-03-07T17:41:38;23.27;;;14.07;;
20859;SDS011;10590;48.154;11.514;2024-03-07T17:47:02;20.43;;;13.80;;
20859;SDS011;10590;48.154;11.514;2024-03-07T17:52:27;19.73;;;14.27;;
20859;SDS011;10590;48.154;11.514;2024-03-07T17:57:49;27.17;;;15.97;;
20859;SDS011;10590;48.154;11.514;2024-03-07T18:03:13;25.87;;;16.87;;
20859;SDS011;10590;48.154;11.514;2024-03-07T18:08:36;26.80;;;16.80;;
20859;SDS011;10590;48.154;11.514;2024-03-07T18:13:58;26.37;;;16.53;;
20859;SDS011;10590;48.154;11.514;2024-03-07T18:19:21;28.50;;;17.20;;
20859;SDS011;10590;48.154;11.514;2024-03-07T18:24:44;26.23;;;16.80;;
20859;SDS011;10590;48.154;11.514;2024-03-07T18:30:06;25.83;;;16.13;;
20859;SDS011;10590;48.154;11.514;2024-03-07T18:35:33;26.23;;;17.50;;
20859;SDS011;10590;48.154;11.514;2024-03-07T18:40:56;27.83;;;18.17;;
20859;SDS011;10590;48.154;11.514;2024-03-07T18:46:18;27.40;;;17.97;;
20859;SDS011;10590;48.154;11.514;2024-03-07T18:51:43;27.90;;;18.00;;
20859;SDS011;10590;48.154;11.514;2024-03-07T18:57:08;29.10;;;18.83;;
20859;SDS011;10590;48.154;11.514;2024-03-07T19:02:31;26.50;;;16.87;;
20859;SDS011;10590;48.154;11.514;2024-03-07T19:07:57;28.07;;;18.07;;
20859;SDS011;10590;48.154;11.514;2024-03-07T19:13:19;27.50;;;16.93;;
20859;SDS011;10590;48.154;11.514;2024-03-07T19:18:41;32.30;;;17.40;;
20859;SDS011;10590;48.154;11.514;2024-03-07T19:24:04;28.83;;;18.83;;
20859;SDS011;10590;48.154;11.514;2024-03-07T19:29:30;24.57;;;16.80;;
20859;SDS011;10590;48.154;11.514;2024-03-07T19:34:51;26.97;;;16.93;;
20859;SDS011;10590;48.154;11.514;2024-03-07T19:40:16;26.73;;;17.40;;
20859;SDS011;10590;48.154;11.514;2024-03-07T19:45:40;30.33;;;18.60;;
20859;SDS011;10590;48.154;11.514;2024-03-07T19:51:03;27.10;;;17.43;;
20859;SDS011;10590;48.154;11.514;2024-03-07T19:56:30;27.80;;;16.10;;
20859;SDS011;10590;48.154;11.514;2024-03-07T20:01:53;28.37;;;17.47;;
20859;SDS011;10590;48.154;11.514;2024-03-07T20:07:15;30.50;;;17.73;;
20859;SDS011;10590;48.154;11.514;2024-03-07T20:12:38;26.83;;;17.43;;
20859;SDS011;10590;48.154;11.514;2024-03-07T20:18:02;34.33;;;20.73;;
20859;SDS011;10590;48.154;11.514;2024-03-07T20:23:24;32.40;;;17.10;;
20859;SDS011;10590;48.154;11.514;2024-03-07T20:28:49;30.43;;;17.70;;
20859;SDS011;10590;48.154;11.514;2024-03-07T20:34:13;32.40;;;18.67;;
20859;SDS011;10590;48.154;11.514;2024-03-07T20:39:34;29.80;;;18.40;;
20859;SDS011;10590;48.154;11.514;2024-03-07T20:44:58;32.23;;;19.63;;
20859;SDS011;10590;48.154;11.514;2024-03-07T20:50:20;29.77;;;18.50;;
20859;SDS011;10590;48.154;11.514;2024-03-07T20:55:44;32.93;;;18.70;;
20859;SDS011;10590;48.154;11.514;2024-03-07T21:01:08;31.63;;;19.47;;
20859;SDS011;10590;48.154;11.514;2024-03-07T21:06:32;31.93;;;19.63;;
20859;SDS011;10590;48.154;11.514;2024-03-07T21:11:54;30.83;;;20.00;;
20859;SDS011;10590;48.154;11.514;2024-03-07T21:17:19;35.87;;;20.07;;
20859;SDS011;10590;48.154;11.514;2024-03-07T21:22:41;35.20;;;19.03;;
20859;SDS011;10590;48.154;11.514;2024-03-07T21:28:04;35.33;;;20.50;;
20859;SDS011;10590;48.154;11.514;2024-03-07T21:33:27;32.03;;;18.80;;
20859;SDS011;10590;48.154;11.514;2024-03-07T21:38:50;37.07;;;21.37;;
20859;SDS011;10590;48.154;11.514;2024-03-07T21:44:12;33.63;;;20.03;;
20859;SDS011;10590;48.154;11.514;2024-03-07T21:49:37;32.60;;;20.10;;
20859;SDS011;10590;48.154;11.514;2024-03-07T21:55:01;33.63;;;19.97;;
20859;SDS011;10590;48.154;11.514;2024-03-07T22:00:27;38.87;;;21.07;;
20859;SDS011;10590;48.154;11.514;2024-03-07T22:05:52;35.30;;;20.57;;
20859;SDS011;10590;48.154;11.514;2024-03-07T22:11:14;33.43;;;20.90;;
20859;SDS011;10590;48.154;11.514;2024-03-07T22:16:35;33.20;;;20.17;;
20859;SDS011;10590;48.154;11.514;2024-03-07T22:21:59;35.50;;;19.27;;
20859;SDS011;10590;48.154;11.514;2024-03-07T22:27:20;32.93;;;19.33;;
20859;SDS011;10590;48.154;11.514;2024-03-07T22:32:42;33.03;;;19.07;;
20859;SDS011;10590;48.154;11.514;2024-03-07T22:38:05;34.90;;;19.40;;
20859;SDS011;10590;48.154;11.514;2024-03-07T22:43:28;36.00;;;19.80;;
20859;SDS011;10590;48.154;11.514;2024-03-07T22:48:51;31.53;;;19.20;;
20859;SDS011;10590;48.154;11.514;2024-03-07T22:54:14;31.03;;;18.27;;
20859;SDS011;10590;48.154;11.514;2024-03-07T22:59:38;32.40;;;18.57;;
20859;SDS011;10590;48.154;11.514;2024-03-07T23:04:59;75.77;;;36.20;;
20859;SDS011;10590;48.154;11.514;2024-03-07T23:10:22;31.67;;;16.57;;
20859;SDS011;10590;48.154;11.514;2024-03-07T23:15:44;30.50;;;17.43;;
20859;SDS011;10590;48.154;11.514;2024-03-07T23:21:06;27.43;;;15.70;;
20859;SDS011;10590;48.154;11.514;2024-03-07T23:26:29;25.17;;;15.97;;
20859;SDS011;10590;48.154;11.514;2024-03-07T23:31:51;24.60;;;14.83;;
20859;SDS011;10590;48.154;11.514;2024-03-07T23:37:12;20.63;;;12.87;;
20859;SDS011;10590;48.154;11.514;2024-03-07T23:42:36;25.07;;;14.97;;
20859;SDS011;10590;48.154;11.514;2024-03-07T23:47:58;26.00;;;15.20;;
20859;SDS011;10590;48.154;11.514;2024-03-07T23:53:19;22.47;;;14.00;;
20859;SDS011;10590;48.154;11.514;2024-03-07T23:58:43;21.83;;;14.40;;
